createdAt,value
2018-03-20T00:01:51.644Z,-2.81
2018-03-20T00:04:19.775Z,-2.80
2018-03-20T00:06:47.086Z,-2.94
2018-03-20T00:09:14.432Z,-2.88
2018-03-20T00:11:41.755Z,-2.95
2018-03-20T00:14:09.067Z,-2.94
2018-03-20T00:16:36.431Z,-2.99
2018-03-20T00:19:04.143Z,-3.01
2018-03-20T00:21:32.206Z,-3.05
2018-03-20T00:23:59.499Z,-3.02
2018-03-20T00:26:26.806Z,-2.99
2018-03-20T00:28:54.087Z,-3.01
2018-03-20T00:31:22.123Z,-3.02
2018-03-20T00:33:49.484Z,-3.05
2018-03-20T00:36:16.800Z,-3.07
2018-03-20T00:38:44.146Z,-3.05
2018-03-20T00:41:11.473Z,-2.92
2018-03-20T00:43:39.544Z,-2.99
2018-03-20T00:46:06.842Z,-3.12
2018-03-20T00:48:34.210Z,-2.92
2018-03-20T00:51:01.629Z,-2.97
2018-03-20T00:53:28.962Z,-3.08
2018-03-20T00:55:56.255Z,-3.11
2018-03-20T00:58:23.739Z,-3.00
2018-03-20T01:00:51.040Z,-2.88
2018-03-20T01:03:18.407Z,-3.00
2018-03-20T01:05:45.747Z,-2.99
2018-03-20T01:08:13.172Z,-2.96
2018-03-20T01:10:40.483Z,-2.90
2018-03-20T01:13:08.811Z,-2.92
2018-03-20T01:15:36.898Z,-3.01
2018-03-20T01:18:04.926Z,-3.01
2018-03-20T01:20:32.267Z,-2.99
2018-03-20T01:22:59.587Z,-3.05
2018-03-20T01:25:26.881Z,-2.97
2018-03-20T01:27:54.233Z,-3.02
2018-03-20T01:30:21.533Z,-2.99
2018-03-20T01:32:49.594Z,-3.17
2018-03-20T01:35:16.925Z,-3.09
2018-03-20T01:37:44.260Z,-3.05
2018-03-20T01:40:11.542Z,-3.17
2018-03-20T01:42:38.854Z,-3.32
2018-03-20T01:45:06.146Z,-3.14
2018-03-20T01:47:33.491Z,-3.15
2018-03-20T01:50:00.876Z,-3.16
2018-03-20T01:52:28.191Z,-3.25
2018-03-20T01:54:55.507Z,-3.32
2018-03-20T01:57:22.835Z,-3.36
2018-03-20T01:59:50.115Z,-3.40
2018-03-20T02:02:17.439Z,-3.35
2018-03-20T02:04:45.538Z,-3.33
2018-03-20T02:07:12.895Z,-3.40
2018-03-20T02:09:41.050Z,-3.40
2018-03-20T02:12:08.371Z,-3.43
2018-03-20T02:14:36.464Z,-3.52
2018-03-20T02:17:04.571Z,-3.55
2018-03-20T02:19:31.914Z,-3.54
2018-03-20T02:21:59.270Z,-3.52
2018-03-20T02:24:26.606Z,-3.62
2018-03-20T02:26:54.696Z,-3.71
2018-03-20T02:29:22.013Z,-3.82
2018-03-20T02:31:49.342Z,-3.72
2018-03-20T02:34:16.670Z,-3.82
2018-03-20T02:36:44.011Z,-3.87
2018-03-20T02:39:11.347Z,-3.98
2018-03-20T02:41:38.723Z,-3.97
2018-03-20T02:44:06.016Z,-3.87
2018-03-20T02:46:34.234Z,-4.05
2018-03-20T02:49:01.553Z,-3.88
2018-03-20T02:51:28.850Z,-3.90
2018-03-20T02:53:57.066Z,-3.99
2018-03-20T02:56:24.491Z,-4.10
2018-03-20T02:58:52.487Z,-4.04
2018-03-20T03:01:19.807Z,-4.07
2018-03-20T03:03:47.143Z,-4.16
2018-03-20T03:06:14.525Z,-4.28
2018-03-20T03:08:41.920Z,-4.25
2018-03-20T03:11:09.247Z,-4.29
2018-03-20T03:13:36.622Z,-4.29
2018-03-20T03:16:04.729Z,-4.25
2018-03-20T03:18:32.183Z,-4.29
2018-03-20T03:20:59.479Z,-4.38
2018-03-20T03:23:26.814Z,-4.44
2018-03-20T03:25:54.169Z,-4.34
2018-03-20T03:28:21.508Z,-4.29
2018-03-20T03:30:49.028Z,-4.37
2018-03-20T03:33:16.340Z,-4.40
2018-03-20T03:35:43.678Z,-4.41
2018-03-20T03:38:10.997Z,-4.42
2018-03-20T03:40:38.329Z,-4.45
2018-03-20T03:43:05.699Z,-4.51
2018-03-20T03:45:33.019Z,-4.46
2018-03-20T03:48:00.332Z,-4.42
2018-03-20T03:50:28.761Z,-4.43
2018-03-20T03:52:56.122Z,-4.46
2018-03-20T03:55:23.447Z,-4.54
2018-03-20T03:57:50.779Z,-4.66
2018-03-20T04:00:18.099Z,-4.76
2018-03-20T04:02:46.182Z,-4.76
2018-03-20T04:05:13.486Z,-4.89
2018-03-20T04:07:40.835Z,-4.92
2018-03-20T04:10:08.182Z,-4.86
2018-03-20T04:12:35.538Z,-4.88
2018-03-20T04:15:02.987Z,-4.80
2018-03-20T04:17:30.303Z,-4.90
2018-03-20T04:20:06.029Z,-5.00
2018-03-20T04:22:36.497Z,-5.05
2018-03-20T04:25:04.154Z,-4.94
2018-03-20T04:27:32.203Z,-4.98
2018-03-20T04:30:00.276Z,-5.00
2018-03-20T04:32:27.647Z,-5.10
2018-03-20T04:34:54.959Z,-5.10
2018-03-20T04:37:22.294Z,-5.09
2018-03-20T04:39:49.586Z,-4.99
2018-03-20T04:42:17.248Z,-5.03
2018-03-20T04:44:44.574Z,-5.07
2018-03-20T04:47:11.861Z,-5.03
2018-03-20T04:49:39.971Z,-5.05
2018-03-20T04:52:07.261Z,-5.04
2018-03-20T04:54:34.570Z,-5.06
2018-03-20T04:57:02.283Z,-5.06
2018-03-20T04:59:29.582Z,-5.13
2018-03-20T05:01:56.898Z,-5.22
2018-03-20T05:04:24.680Z,-5.24
2018-03-20T05:06:51.998Z,-5.29
2018-03-20T05:09:19.297Z,-5.32
2018-03-20T05:11:46.719Z,-5.43
2018-03-20T05:14:14.063Z,-5.55
2018-03-20T05:16:41.479Z,-5.57
2018-03-20T05:19:15.002Z,-5.66
2018-03-20T05:21:49.180Z,-5.63
2018-03-20T05:24:16.778Z,-5.71
2018-03-20T05:26:44.138Z,-5.82
2018-03-20T05:29:11.519Z,-5.72
2018-03-20T05:31:38.912Z,-5.72
2018-03-20T05:34:06.288Z,-5.69
2018-03-20T05:36:33.635Z,-5.59
2018-03-20T05:39:01.013Z,-5.57
2018-03-20T05:41:29.355Z,-5.39
2018-03-20T05:43:56.720Z,-5.28
2018-03-20T05:46:30.150Z,-5.04
2018-03-20T06:02:19.936Z,-4.94
2018-03-20T06:04:47.275Z,-5.02
2018-03-20T06:07:14.703Z,-5.09
2018-03-20T06:09:42.182Z,-5.07
2018-03-20T06:12:09.542Z,-5.04
2018-03-20T06:14:36.878Z,-4.95
2018-03-20T06:17:04.232Z,-4.90
2018-03-20T06:19:31.589Z,-4.79
2018-03-20T06:21:58.919Z,-4.71
2018-03-20T06:24:26.271Z,-4.63
2018-03-20T06:26:53.603Z,-4.66
2018-03-20T06:29:20.984Z,-4.57
2018-03-20T06:31:48.307Z,-4.49
2018-03-20T06:34:15.682Z,-4.42
2018-03-20T06:36:43.803Z,-4.22
2018-03-20T06:39:11.182Z,-4.08
2018-03-20T06:41:38.505Z,-4.00
2018-03-20T06:44:05.960Z,-3.92
2018-03-20T06:46:33.279Z,-3.87
2018-03-20T06:49:00.630Z,-3.92
2018-03-20T06:51:28.018Z,-3.86
2018-03-20T06:53:57.554Z,-3.87
2018-03-20T06:56:25.038Z,-3.76
2018-03-20T06:58:52.365Z,-3.72
2018-03-20T07:01:19.683Z,-3.63
2018-03-20T07:03:47.091Z,-3.72
2018-03-20T07:06:14.577Z,-3.61
2018-03-20T07:08:41.844Z,-3.49
2018-03-20T07:11:09.226Z,-3.60
2018-03-20T07:13:36.564Z,-3.44
2018-03-20T07:16:05.179Z,-3.44
2018-03-20T07:18:32.606Z,-3.45
2018-03-20T07:20:59.936Z,-3.50
2018-03-20T07:23:27.263Z,-3.52
2018-03-20T07:25:54.564Z,-3.37
2018-03-20T07:28:21.979Z,-3.27
2018-03-20T07:30:49.319Z,-3.17
2018-03-20T07:33:16.666Z,-3.05
2018-03-20T07:35:44.008Z,-2.88
2018-03-20T07:38:11.307Z,-2.85
2018-03-20T07:40:38.650Z,-2.72
2018-03-20T07:43:05.943Z,-2.76
2018-03-20T07:45:33.287Z,-2.66
2018-03-20T07:48:00.674Z,-2.75
2018-03-20T07:50:28.008Z,-2.78
2018-03-20T07:52:55.384Z,-2.70
2018-03-20T07:55:22.976Z,-2.51
2018-03-20T07:57:50.302Z,-2.51
2018-03-20T08:00:17.605Z,-2.51
2018-03-20T08:02:45.148Z,-2.42
2018-03-20T08:05:12.495Z,-1.87
2018-03-20T08:07:39.836Z,-1.45
2018-03-20T08:10:07.172Z,-0.92
2018-03-20T08:12:34.793Z,-0.50
2018-03-20T08:15:02.199Z,0.04
2018-03-20T08:17:30.071Z,0.29
2018-03-20T08:19:57.417Z,0.54
2018-03-20T08:22:24.763Z,0.79
2018-03-20T08:24:52.533Z,0.77
2018-03-20T08:27:19.886Z,0.60
2018-03-20T08:29:47.203Z,0.74
2018-03-20T08:32:14.539Z,1.69
2018-03-20T08:34:41.861Z,2.54
2018-03-20T08:37:09.960Z,3.89
2018-03-20T08:39:38.187Z,6.03
2018-03-20T08:42:04.818Z,8.47
2018-03-20T08:44:31.416Z,9.95
2018-03-20T08:46:58.790Z,11.81
2018-03-20T08:49:25.430Z,10.20
2018-03-20T08:51:52.052Z,12.24
2018-03-20T08:54:18.652Z,13.17
2018-03-20T08:56:45.472Z,14.16
2018-03-20T08:59:12.261Z,13.94
2018-03-20T09:01:39.584Z,12.71
2018-03-20T09:04:06.248Z,12.51
2018-03-20T09:06:32.858Z,13.59
2018-03-20T09:08:59.422Z,14.72
2018-03-20T09:11:27.049Z,15.46
2018-03-20T09:13:53.847Z,15.38
2018-03-20T09:16:20.399Z,16.43
2018-03-20T09:18:46.995Z,17.63
2018-03-20T09:21:13.583Z,15.82
2018-03-20T09:23:40.271Z,14.92
2018-03-20T09:26:06.871Z,12.36
2018-03-20T09:28:33.463Z,10.72
2018-03-20T09:31:01.277Z,9.27
2018-03-20T09:33:27.915Z,10.41
2018-03-20T09:35:54.503Z,10.59
2018-03-20T09:38:21.090Z,11.67
2018-03-20T09:40:47.657Z,10.54
2018-03-20T09:43:14.961Z,10.77
2018-03-20T09:45:42.328Z,9.99
2018-03-20T09:48:09.275Z,7.81
2018-03-20T09:50:36.230Z,7.87
2018-03-20T09:53:02.810Z,6.91
2018-03-20T09:55:30.141Z,7.39
2018-03-20T09:57:57.479Z,7.96
2018-03-20T10:00:26.565Z,8.98
2018-03-20T10:02:53.146Z,9.53
2018-03-20T10:05:20.455Z,8.52
2018-03-20T10:07:47.807Z,10.16
2018-03-20T10:10:14.842Z,9.66
2018-03-20T10:12:41.811Z,9.23
2018-03-20T10:15:08.755Z,10.36
2018-03-20T10:17:35.727Z,11.53
2018-03-20T10:20:02.761Z,11.71
2018-03-20T10:22:29.830Z,10.66
2018-03-20T10:24:56.835Z,8.59
2018-03-20T10:27:23.773Z,7.56
2018-03-20T10:29:50.754Z,7.60
2018-03-20T10:32:17.735Z,7.35
2018-03-20T10:34:44.301Z,7.09
2018-03-20T10:37:10.935Z,6.83
2018-03-20T10:39:37.599Z,8.23
2018-03-20T10:42:04.931Z,9.32
2018-03-20T10:44:32.252Z,8.89
2018-03-20T10:46:58.910Z,7.51
2018-03-20T10:49:26.304Z,7.25
2018-03-20T10:51:53.658Z,7.45
2018-03-20T10:54:20.249Z,7.83
2018-03-20T10:56:47.368Z,7.68
2018-03-20T10:59:15.268Z,6.91
2018-03-20T11:01:45.568Z,6.03
2018-03-20T11:04:12.942Z,5.88
2018-03-20T11:06:40.336Z,5.59
2018-03-20T11:09:07.666Z,5.95
2018-03-20T11:11:34.963Z,6.60
2018-03-20T11:14:01.948Z,7.30
2018-03-20T11:16:28.918Z,7.94
2018-03-20T11:18:55.890Z,8.68
2018-03-20T11:21:23.060Z,8.31
2018-03-20T11:23:49.651Z,8.48
2018-03-20T11:26:16.992Z,8.80
2018-03-20T11:28:43.619Z,8.16
2018-03-20T11:31:10.326Z,8.18
2018-03-20T11:33:36.969Z,8.00
2018-03-20T11:36:03.571Z,7.47
2018-03-20T11:38:30.164Z,7.14
2018-03-20T11:40:56.776Z,6.68
2018-03-20T11:43:23.379Z,6.11
2018-03-20T11:45:49.997Z,6.01
2018-03-20T11:48:17.332Z,4.91
2018-03-20T11:50:44.163Z,4.94
2018-03-20T11:53:11.693Z,4.65
2018-03-20T11:55:39.022Z,4.24
2018-03-20T11:58:06.649Z,4.44
2018-03-20T12:00:33.322Z,4.28
2018-03-20T12:02:59.951Z,4.09
2018-03-20T12:05:26.567Z,4.46
2018-03-20T12:07:54.135Z,4.29
2018-03-20T12:10:20.796Z,4.20
2018-03-20T12:12:48.143Z,3.40
2018-03-20T12:15:15.612Z,3.07
2018-03-20T12:17:42.209Z,3.01
2018-03-20T12:20:08.807Z,3.25
2018-03-20T12:22:35.810Z,3.09
2018-03-20T12:25:03.163Z,2.76
2018-03-20T12:27:29.739Z,2.87
2018-03-20T12:29:56.378Z,2.80
2018-03-20T12:32:23.020Z,2.68
2018-03-20T12:34:49.771Z,2.94
2018-03-20T12:37:16.360Z,2.77
2018-03-20T12:39:43.733Z,2.66
2018-03-20T12:42:11.078Z,2.73
2018-03-20T12:44:37.694Z,2.92
2018-03-20T12:47:05.425Z,3.15
2018-03-20T12:49:32.050Z,3.07
2018-03-20T12:51:58.679Z,3.24
2018-03-20T12:54:25.287Z,3.30
2018-03-20T12:56:52.206Z,3.57
2018-03-20T12:59:18.787Z,3.51
2018-03-20T13:01:45.410Z,3.76
2018-03-20T13:04:12.180Z,3.80
2018-03-20T13:06:38.755Z,3.62
2018-03-20T13:09:06.088Z,3.64
2018-03-20T13:11:32.734Z,3.68
2018-03-20T13:13:59.317Z,4.04
2018-03-20T13:16:26.308Z,3.99
2018-03-20T13:18:52.923Z,3.93
2018-03-20T13:21:19.526Z,3.88
2018-03-20T13:23:46.893Z,3.63
2018-03-20T13:26:14.271Z,3.36
2018-03-20T13:28:40.925Z,3.32
2018-03-20T13:31:07.587Z,3.22
2018-03-20T13:33:34.185Z,3.21
2018-03-20T13:36:01.570Z,3.19
2018-03-20T13:38:29.026Z,3.06
2018-03-20T13:40:55.650Z,2.81
2018-03-20T13:43:22.314Z,2.79
2018-03-20T13:45:49.004Z,2.71
2018-03-20T13:48:15.635Z,2.95
2018-03-20T13:50:42.240Z,2.65
2018-03-20T13:53:09.802Z,2.59
2018-03-20T13:55:36.559Z,2.63
2018-03-20T13:58:03.239Z,2.44
2018-03-20T14:00:29.866Z,2.40
2018-03-20T14:02:56.530Z,2.42
2018-03-20T14:05:23.139Z,2.34
2018-03-20T14:07:49.722Z,2.14
2018-03-20T14:10:17.292Z,2.24
2018-03-20T14:12:43.914Z,2.28
2018-03-20T14:15:10.536Z,2.12
2018-03-20T14:17:37.155Z,1.97
2018-03-20T14:20:03.810Z,1.77
2018-03-20T14:22:30.408Z,1.84
2018-03-20T14:24:57.103Z,1.89
2018-03-20T14:27:23.727Z,1.82
2018-03-20T14:29:50.667Z,1.62
2018-03-20T14:32:17.332Z,1.74
2018-03-20T14:34:43.948Z,1.75
2018-03-20T14:37:10.586Z,1.85
2018-03-20T14:39:37.178Z,1.42
2018-03-20T14:42:03.826Z,1.12
2018-03-20T14:44:30.427Z,1.13
2018-03-20T14:46:57.786Z,0.91
2018-03-20T14:49:25.162Z,0.85
2018-03-20T14:51:52.681Z,0.72
2018-03-20T14:54:19.948Z,0.66
2018-03-20T14:56:46.571Z,0.46
2018-03-20T14:59:14.883Z,0.43
2018-03-20T15:01:41.525Z,0.42
2018-03-20T15:04:08.099Z,0.43
2018-03-20T15:06:34.723Z,0.27
2018-03-20T15:09:01.320Z,0.32
2018-03-20T15:11:28.004Z,0.23
2018-03-20T15:13:55.294Z,0.13
2018-03-20T15:16:22.450Z,-0.09
2018-03-20T15:18:49.085Z,-0.03
2018-03-20T15:21:15.787Z,-0.06
2018-03-20T15:23:42.370Z,0.05
2018-03-20T15:26:10.023Z,0.03
2018-03-20T15:28:36.665Z,0.00
2018-03-20T15:31:04.097Z,0.04
2018-03-20T15:33:30.747Z,0.15
2018-03-20T15:35:57.343Z,-0.05
2018-03-20T15:38:23.974Z,-0.11
2018-03-20T15:40:50.636Z,-0.03
2018-03-20T15:43:17.243Z,-0.11
2018-03-20T15:45:43.904Z,-0.26
2018-03-20T15:48:10.536Z,-0.13
2018-03-20T15:50:37.132Z,-0.11
2018-03-20T15:53:05.437Z,-0.17
2018-03-20T15:55:32.016Z,-0.10
2018-03-20T15:57:58.617Z,-0.25
2018-03-20T16:00:25.246Z,-0.08
2018-03-20T16:02:51.941Z,-0.16
2018-03-20T16:05:18.543Z,-0.15
2018-03-20T16:07:45.162Z,-0.29
2018-03-20T16:10:11.915Z,-0.29
2018-03-20T16:12:38.517Z,-0.19
2018-03-20T16:15:05.174Z,-0.20
2018-03-20T16:17:31.947Z,-0.32
2018-03-20T16:19:58.535Z,-0.37
2018-03-20T16:22:25.182Z,-0.57
2018-03-20T16:24:51.792Z,-0.46
2018-03-20T16:27:18.377Z,-0.49
2018-03-20T16:29:45.014Z,-0.52
2018-03-20T16:32:11.641Z,-0.51
2018-03-20T16:34:38.451Z,-0.53
2018-03-20T16:37:05.065Z,-0.40
2018-03-20T16:39:31.712Z,-0.46
2018-03-20T16:41:58.734Z,-0.54
2018-03-20T16:44:25.366Z,-0.57
2018-03-20T16:46:51.980Z,-0.68
2018-03-20T16:49:18.587Z,-0.55
2018-03-20T16:51:45.927Z,-0.83
2018-03-20T16:54:12.634Z,-0.80
2018-03-20T16:56:39.279Z,-0.86
2018-03-20T16:59:05.957Z,-0.77
2018-03-20T17:01:32.556Z,-0.82
2018-03-20T17:03:59.200Z,-0.85
2018-03-20T17:06:26.902Z,-0.88
2018-03-20T17:08:54.254Z,-0.99
2018-03-20T17:11:20.927Z,-0.95
2018-03-20T17:13:47.577Z,-0.86
2018-03-20T17:16:14.522Z,-0.81
2018-03-20T17:18:41.187Z,-0.86
2018-03-20T17:21:07.876Z,-0.83
2018-03-20T17:23:34.503Z,-0.80
2018-03-20T17:26:01.689Z,-0.77
2018-03-20T17:28:28.544Z,-0.74
2018-03-20T17:30:55.909Z,-0.85
2018-03-20T17:33:23.231Z,-0.88
2018-03-20T17:35:50.874Z,-0.90
2018-03-20T17:38:17.464Z,-0.92
2018-03-20T17:40:44.071Z,-0.96
2018-03-20T17:43:11.236Z,-0.99
2018-03-20T17:45:45.048Z,-1.00
2018-03-20T17:48:11.797Z,-0.99
2018-03-20T17:50:39.194Z,-1.05
2018-03-20T17:53:05.799Z,-0.98
2018-03-20T17:55:33.140Z,-1.04
2018-03-20T17:57:59.782Z,-0.88
2018-03-20T18:00:26.451Z,-0.96
2018-03-20T18:02:53.433Z,-0.96
2018-03-20T18:05:20.027Z,-0.97
2018-03-20T18:07:47.366Z,-0.94
2018-03-20T18:10:13.981Z,-0.87
2018-03-20T18:12:40.675Z,-0.91
2018-03-20T18:15:07.496Z,-0.97
2018-03-20T18:17:35.074Z,-0.93
2018-03-20T18:20:01.759Z,-1.02
2018-03-20T18:22:29.265Z,-0.83
2018-03-20T18:24:56.374Z,-0.99
2018-03-20T18:27:23.698Z,-1.00
2018-03-20T18:29:50.354Z,-0.97
2018-03-20T18:32:17.359Z,-1.13
2018-03-20T18:34:44.213Z,-1.14
2018-03-20T18:37:10.831Z,-1.08
2018-03-20T18:39:37.428Z,-1.16
2018-03-20T18:42:04.072Z,-1.18
2018-03-20T18:44:30.696Z,-1.30
2018-03-20T18:46:57.283Z,-1.24
2018-03-20T18:49:23.929Z,-1.29
2018-03-20T18:51:50.525Z,-1.32
2018-03-20T18:54:17.845Z,-1.39
2018-03-20T18:56:44.500Z,-1.43
2018-03-20T18:59:11.162Z,-1.39
2018-03-20T19:01:38.628Z,-1.38
2018-03-20T19:04:05.316Z,-1.26
2018-03-20T19:06:31.983Z,-1.28
2018-03-20T19:08:58.681Z,-1.17
2018-03-20T19:11:25.739Z,-1.17
2018-03-20T19:13:52.353Z,-1.26
2018-03-20T19:16:18.987Z,-1.22
2018-03-20T19:18:45.617Z,-1.15
2018-03-20T19:21:12.235Z,-1.07
2018-03-20T19:23:39.637Z,-1.07
2018-03-20T19:26:07.970Z,-1.28
2018-03-20T19:28:34.575Z,-1.28
2018-03-20T19:31:01.873Z,-1.26
2018-03-20T19:33:28.497Z,-1.27
2018-03-20T19:35:55.269Z,-1.16
2018-03-20T19:38:21.873Z,-1.19
2018-03-20T19:40:48.471Z,-1.25
2018-03-20T19:43:15.095Z,-1.14
2018-03-20T19:45:41.813Z,-1.20
2018-03-20T19:48:08.428Z,-1.31
2018-03-20T19:50:35.031Z,-1.25
2018-03-20T19:53:01.728Z,-1.27
2018-03-20T19:55:28.340Z,-1.11
2018-03-20T19:57:55.035Z,-1.23
2018-03-20T20:00:21.680Z,-1.30
2018-03-20T20:02:48.294Z,-1.19
2018-03-20T20:05:14.986Z,-1.18
2018-03-20T20:07:41.580Z,-1.28
2018-03-20T20:10:08.207Z,-1.26
2018-03-20T20:12:34.951Z,-1.33
2018-03-20T20:15:01.535Z,-1.32
2018-03-20T20:17:28.186Z,-1.31
2018-03-20T20:19:54.840Z,-1.32
2018-03-20T20:22:21.494Z,-1.22
2018-03-20T20:24:48.154Z,-1.15
2018-03-20T20:27:15.083Z,-1.18
2018-03-20T20:29:41.743Z,-1.18
2018-03-20T20:32:08.346Z,-1.23
2018-03-20T20:34:34.995Z,-1.26
2018-03-20T20:37:01.607Z,-1.19
2018-03-20T20:39:28.251Z,-1.20
2018-03-20T20:41:54.925Z,-1.22
2018-03-20T20:44:21.696Z,-1.27
2018-03-20T20:46:48.390Z,-1.23
2018-03-20T20:49:15.045Z,-1.30
2018-03-20T20:51:41.662Z,-1.28
2018-03-20T20:54:08.278Z,-1.35
2018-03-20T20:56:34.937Z,-1.32
2018-03-20T20:59:01.568Z,-1.34
2018-03-20T21:01:28.179Z,-1.26
2018-03-20T21:03:54.825Z,-1.14
2018-03-20T21:06:21.572Z,-1.27
2018-03-20T21:08:48.175Z,-1.33
2018-03-20T21:11:14.797Z,-1.25
2018-03-20T21:13:42.214Z,-1.20
2018-03-20T21:16:08.979Z,-1.21
2018-03-20T21:18:35.595Z,-1.19
2018-03-20T21:21:02.905Z,-1.15
2018-03-20T21:23:30.234Z,-1.36
2018-03-20T21:25:56.822Z,-1.28
2018-03-20T21:28:23.659Z,-1.30
2018-03-20T21:30:50.274Z,-1.35
2018-03-20T21:33:16.884Z,-1.28
2018-03-20T21:35:43.503Z,-1.20
2018-03-20T21:38:10.109Z,-1.27
2018-03-20T21:40:36.634Z,-1.25
2018-03-20T21:43:03.283Z,-1.23
2018-03-20T21:45:30.589Z,-1.27
2018-03-20T21:47:57.169Z,-1.30
2018-03-20T21:50:23.776Z,-1.40
2018-03-20T21:52:50.349Z,-1.36
2018-03-20T21:55:17.087Z,-1.30
2018-03-20T21:57:43.708Z,-1.23
2018-03-20T22:00:10.267Z,-1.33
2018-03-20T22:02:37.557Z,-1.27
2018-03-20T22:05:04.322Z,-1.28
2018-03-20T22:07:30.860Z,-1.25
2018-03-20T22:09:58.216Z,-1.27
2018-03-20T22:12:24.778Z,-1.25
2018-03-20T22:14:52.628Z,-1.28
2018-03-20T22:17:19.171Z,-1.28
2018-03-20T22:19:45.740Z,-1.41
2018-03-20T22:22:12.302Z,-1.42
2018-03-20T22:24:38.882Z,-1.37
2018-03-20T22:27:05.462Z,-1.40
2018-03-20T22:29:32.071Z,-1.29
2018-03-20T22:31:58.948Z,-1.27
2018-03-20T22:34:25.576Z,-1.36
2018-03-20T22:36:52.114Z,-1.26
2018-03-20T22:39:18.714Z,-1.19
2018-03-20T22:41:46.010Z,-1.25
2018-03-20T22:44:12.553Z,-1.29
2018-03-20T22:46:39.088Z,-1.20
2018-03-20T22:49:05.886Z,-1.29
2018-03-20T22:51:33.150Z,-1.27
2018-03-20T22:53:59.728Z,-1.30
2018-03-20T22:56:26.284Z,-1.27
2018-03-20T22:58:52.839Z,-1.39
2018-03-20T23:01:19.354Z,-1.30
2018-03-20T23:03:45.935Z,-1.28
2018-03-20T23:06:12.523Z,-1.35
2018-03-20T23:08:39.787Z,-1.22
2018-03-20T23:11:07.208Z,-1.26
2018-03-20T23:13:33.743Z,-1.25
2018-03-20T23:16:00.279Z,-1.14
2018-03-20T23:18:26.819Z,-1.13
2018-03-20T23:20:54.139Z,-1.16
2018-03-20T23:23:20.696Z,-1.17
2018-03-20T23:25:47.359Z,-1.29
2018-03-20T23:28:13.898Z,-1.33
2018-03-20T23:30:41.285Z,-1.28
2018-03-20T23:33:08.566Z,-1.28
2018-03-20T23:35:35.493Z,-1.25
2018-03-20T23:38:02.770Z,-1.29
2018-03-20T23:40:29.325Z,-1.36
2018-03-20T23:42:55.850Z,-1.31
2018-03-20T23:45:22.375Z,-1.37
2018-03-20T23:47:48.923Z,-1.46
2018-03-20T23:50:16.235Z,-1.40
2018-03-20T23:52:42.851Z,-1.27
2018-03-20T23:55:09.408Z,-1.37
2018-03-20T23:57:36.700Z,-1.48
